Home > Products > Valid Products > MTR

000
SAUS43 KUNR 230803
MTR2WX
METAR K2WX 230756Z AUTO 27006KT 06/M03 A2989 RMK AO1 SLP122
T00561028





000
SAUS43 KUNR 230758
MTRD07
METAR KD07 230756Z AUTO 21011KT 06/M01 A2998 RMK AO1 SLP156
T00561011





000
SAUS43 KUNR 230703
MTR2WX
METAR K2WX 230656Z AUTO 26004KT 04/M03 A2990 RMK AO1 SLP130
T00391033 401720039





000
SAUS43 KUNR 230657
MTRD07
METAR KD07 230656Z AUTO 22009KT 07/M02 A2998 RMK AO1 SLP158
T00671017 401830056





000
SAUS43 KUNR 230603
MTR2WX
METAR K2WX 230556Z AUTO 23003KT 05/M03 A2991 RMK AO1 SLP133
T00501033 10122 20050 58003





000
SAUS43 KUNR 230557
MTRD07
METAR KD07 230556Z AUTO 22008KT 07/M01 A2999 RMK AO1 SLP162
T00671011 10122 20056 50001





000
SAUS43 KUNR 230503
MTR2WX
METAR K2WX 230456Z AUTO 26004KT 06/M03 A2992 RMK AO1 SLP136
T00561028





000
SAUS43 KUNR 230503
MTR2WX
METAR K2WX 230456Z AUTO 26004KT 06/M03 A2992 RMK AO1 SLP136
T00561028





000
SAUS43 KUNR 230457
MTRD07
METAR KD07 230456Z AUTO 20008KT 06/M01 A2999 RMK AO1 SLP164
T00611006





000
SAUS43 KUNR 230457
MTRD07
METAR KD07 230456Z AUTO 20008KT 06/M01 A2999 RMK AO1 SLP164
T00611006





000
SAUS43 KUNR 230403
MTR2WX
METAR K2WX 230356Z AUTO 25004KT 07/M03 A2992 RMK AO1 SLP135
T00721028





000
SAUS43 KUNR 230357
MTRD07
METAR KD07 230356Z AUTO 23005KT 11/M02 A2999 RMK AO1 SLP161
T01061017





000
SAUS43 KUNR 230357
MTRD07
METAR KD07 230356Z AUTO 23005KT 11/M02 A2999 RMK AO1 SLP161
T01061017





000
SAUS43 KUNR 230303
MTR2WX
METAR K2WX 230256Z AUTO 26005KT 07/M02 A2992 RMK AO1 SLP142
T00721022 53007





000
SAUS43 KUNR 230257
MTRD07
METAR KD07 230256Z AUTO 29005KT 12/M02 A2998 RMK AO1 SLP160
T01171017 51006





000
SAUS43 KUNR 230203
MTR2WX
METAR K2WX 230156Z AUTO 25006KT 08/M03 A2991 RMK AO1 SLP139
T00781028





000
SAUS43 KUNR 230203
MTR2WX
METAR K2WX 230156Z AUTO 25006KT 08/M03 A2991 RMK AO1 SLP139
T00781028





000
SAUS43 KUNR 230157
MTRD07
METAR KD07 230156Z AUTO 26006KT 11/M01 A2998 RMK AO1 SLP161
T01061011





000
SAUS43 KUNR 230157
MTRD07
METAR KD07 230156Z AUTO 26006KT 11/M01 A2998 RMK AO1 SLP161
T01061011





000
SAUS43 KUNR 230103
MTR2WX
METAR K2WX 230056Z AUTO 29008KT 09/M03 A2991 RMK AO1 SLP135
T00941028





000
SAUS43 KUNR 230103
MTR2WX
METAR K2WX 230056Z AUTO 29008KT 09/M03 A2991 RMK AO1 SLP135
T00941028





000
SAUS43 KUNR 230057
MTRD07
METAR KD07 230056Z AUTO 26006KT 11/M01 A2998 RMK AO1 SLP159
T01061006





000
SAUS43 KUNR 230057
MTRD07
METAR KD07 230056Z AUTO 26006KT 11/M01 A2998 RMK AO1 SLP159
T01061006





000
SAUS43 KUNR 230003
MTR2WX
METAR K2WX 222356Z AUTO 27009KT 12/M02 A2990 RMK AO1 SLP129
T01221022 10172 20122 53004





000
SAUS43 KUNR 230003
MTR2WX
METAR K2WX 222356Z AUTO 27009KT 12/M02 A2990 RMK AO1 SLP129
T01221022 10172 20122 53004





000
SAUS43 KUNR 222357
MTRD07
METAR KD07 222356Z AUTO 27007KT 12/00 A2997 RMK AO1 SLP151 T01220000
10183 20122 53009





000
SAUS43 KUNR 222357
MTRD07
METAR KD07 222356Z AUTO 27007KT 12/00 A2997 RMK AO1 SLP151 T01220000
10183 20122 53009





000
SAUS43 KUNR 222303
MTR2WX
METAR K2WX 222256Z AUTO 29018KT 16/M03 A2989 RMK AO1 SLP119
T01611033





000
SAUS43 KUNR 222303
MTR2WX
METAR K2WX 222256Z AUTO 29018KT 16/M03 A2989 RMK AO1 SLP119
T01611033





000
SAUS43 KUNR 222257
MTRD07
METAR KD07 222256Z AUTO 29013KT 17/M02 A2995 RMK AO1 SLP139
T01721017





000
SAUS43 KUNR 222257
MTRD07
METAR KD07 222256Z AUTO 29013KT 17/M02 A2995 RMK AO1 SLP139
T01721017





000
SAUS43 KUNR 222203
MTR2WX
METAR K2WX 222156Z AUTO 29021G28KT 17/M03 A2989 RMK AO1 PK WND
29028/2117 SLP117 T01671028





000
SAUS43 KUNR 222157
MTRD07
METAR KD07 222156Z AUTO 29014KT 18/00 A2994 RMK AO1 SLP135 T01780000





000
SAUS43 KUNR 222103
MTR2WX
METAR K2WX 222056Z AUTO 28020G28KT 17/M03 A2989 RMK AO1 PK WND
29029/2010 SLP117 T01721028 55004





000
SAUS43 KUNR 222057
MTRD07
METAR KD07 222056Z AUTO 29013G21KT 18/01 A2994 RMK AO1 SLP134
T01830011 55007





000
SAUS43 KUNR 222003
MTR2WX
METAR K2WX 221956Z AUTO 27019KT 17/M01 A2988 RMK AO1 PK WND
29026/1905 SLP114 T01671006





000
SAUS43 KUNR 221957
MTRD07
METAR KD07 221956Z AUTO 27016G21KT 18/02 A2993 RMK AO1 SLP132
T01830017





000
SAUS43 KUNR 221903
MTR2WX
METAR K2WX 221856Z AUTO 29022G28KT 16/00 A2989 RMK AO1 PK WND
28030/1828 SLP115 T01610000





000
SAUS43 KUNR 221857
MTRD07
METAR KD07 221856Z AUTO 30017G24KT 17/02 A2994 RMK AO1 SLP135
T01720017





000
SAUS43 KUNR 221803
MTR2WX
METAR K2WX 221756Z AUTO 29022G25KT 16/00 A2990 RMK AO1 PK WND
29027/1707 SLP118 T01560000 10156 20072 51003





000
SAUS43 KUNR 221803
MTR2WX
METAR K2WX 221756Z AUTO 29022G25KT 16/00 A2990 RMK AO1 PK WND
29027/1707 SLP118 T01560000 10156 20072 51003





000
SAUS43 KUNR 221757
MTRD07
METAR KD07 221756Z AUTO 30014G21KT 14/03 A2996 RMK AO1 SLP144
T01440033 10156 20106 50005





000
SAUS43 KUNR 221757
MTRD07
METAR KD07 221756Z AUTO 30014G21KT 14/03 A2996 RMK AO1 SLP144
T01440033 10156 20106 50005





000
SAUS43 KUNR 221703
MTR2WX
METAR K2WX 221656Z AUTO 29021G27KT 14/01 A2990 RMK AO1 PK WND
28027/1648 SLP117 T01390006





000
SAUS43 KUNR 221703
MTR2WX
METAR K2WX 221656Z AUTO 29021G27KT 14/01 A2990 RMK AO1 PK WND
28027/1648 SLP117 T01390006





000
SAUS43 KUNR 221658
MTRD07
METAR KD07 221656Z AUTO 28011KT 12/04 A2997 RMK AO1 SLP147 T01220039





000
SAUS43 KUNR 221658
MTRD07
METAR KD07 221656Z AUTO 28011KT 12/04 A2997 RMK AO1 SLP147 T01220039





000
SAUS43 KUNR 221603
MTR2WX
METAR K2WX 221556Z AUTO 29016KT 12/02 A2990 RMK AO1 SLP121 T01220017





000
SAUS43 KUNR 221603
MTR2WX
METAR K2WX 221556Z AUTO 29016KT 12/02 A2990 RMK AO1 SLP121 T01220017





000
SAUS43 KUNR 221558
MTRD07
METAR KD07 221556Z AUTO 29014KT 12/04 A2996 RMK AO1 SLP144 T01170044





000
SAUS43 KUNR 221558
MTRD07
METAR KD07 221556Z AUTO 29014KT 12/04 A2996 RMK AO1 SLP144 T01170044





000
SAUS43 KUNR 221503
MTR2WX
METAR K2WX 221456Z AUTO 27011KT 09/03 A2989 RMK AO1 SLP119 T00940028
53013





000
SAUS43 KUNR 221457
MTRD07
METAR KD07 221456Z AUTO 30014KT 11/05 A2994 RMK AO1 SLP139 T01060050
51024





000
SAUS43 KUNR 221403
MTR2WX
METAR K2WX 221356Z AUTO 28015KT 07/03 A2987 RMK AO1 SLP111 T00720028





000
SAUS43 KUNR 221357
MTRD07
METAR KD07 221356Z AUTO 29012KT 11/06 A2992 RMK AO1 SLP131 T01060056





000
SAUS43 KUNR 221303
MTR2WX
METAR K2WX 221256Z AUTO 29013KT 08/03 A2985 RMK AO1 SLP104 T00780033





000
SAUS43 KUNR 221257
MTRD07
METAR KD07 221256Z AUTO 31013KT 12/06 A2989 RMK AO1 PK WND
31027/1232 SLP121 T01170056





000
SAUS43 KUNR 221203
MTR2WX
METAR K2WX 221156Z AUTO 29014KT 09/04 A2985 RMK AO1 SLP100 T00890039
10150 20089 51028





000
SAUS43 KUNR 221157
MTRD07
METAR KD07 221156Z AUTO 30016KT 12/04 A2986 RMK AO1 SLP108 T01220044
10167 20122 51020





000
SAUS43 KUNR 221103
MTR2WX
METAR K2WX 221056Z AUTO 29008KT 09/05 A2983 RMK AO1 PK WND
29026/1020 SLP089 T00890050





000
SAUS43 KUNR 221057
MTRD07
METAR KD07 221056Z AUTO 28014KT 13/04 A2986 RMK AO1 SLP101 T01330044





000
SAUS43 KUNR 221057
MTRD07
METAR KD07 221056Z AUTO 28014KT 13/04 A2986 RMK AO1 SLP101 T01330044





000
SAUS43 KUNR 221003
MTR2WX
METAR K2WX 220956Z AUTO 30010KT 10/05 A2979 RMK AO1 SLP074 T01000050





000
SAUS43 KUNR 221003
MTR2WX
METAR K2WX 220956Z AUTO 30010KT 10/05 A2979 RMK AO1 SLP074 T01000050





000
SAUS43 KUNR 220957
MTRD07
METAR KD07 220956Z AUTO 29011KT 14/07 A2983 RMK AO1 SLP089 T01390072





000
SAUS43 KUNR 220957
MTRD07
METAR KD07 220956Z AUTO 29011KT 14/07 A2983 RMK AO1 SLP089 T01390072





000
SAUS43 KUNR 220903
MTR2WX
METAR K2WX 220856Z AUTO 29018KT 11/04 A2976 RMK AO1 PK WND
29028/0801 SLP061 T01060039 51024





000
SAUS43 KUNR 220857
MTRD07
METAR KD07 220856Z AUTO 29010KT 14/07 A2980 RMK AO1 SLP079 T01390067
51027





000
SAUS43 KUNR 220803
MTR2WX
METAR K2WX 220756Z AUTO 29016KT 12/04 A2974 RMK AO1 PK WND
30029/0707 SLP052 T01170039





000
SAUS43 KUNR 220758
MTRD07
METAR KD07 220756Z AUTO 25005KT 15/08 A2978 RMK AO1 SLP071 T01500083





000
SAUS43 KUNR 220703
MTR2WX
METAR K2WX 220656Z AUTO 31022G29KT 14/06 A2971 RMK AO1 PK WND
30029/0650 SLP040 T01440056 402890072





000
SAUS43 KUNR 220658
MTRD07
METAR KD07 220656Z AUTO 21008KT 16/09 A2974 RMK AO1 SLP058 T01560094
402780072





000
SAUS43 KUNR 220603
MTR2WX
METAR K2WX 220556Z AUTO 30013KT 14/05 A2968 RMK AO1 SLP033 T01440050
10217 20133 52025





000
SAUS43 KUNR 220558
MTRD07
METAR KD07 220556Z AUTO 17012KT 15/10 A2971 RMK AO1 SLP053 T01500100
10211 20144 53000





000
SAUS43 KUNR 220558
MTRD07
METAR KD07 220556Z AUTO 17012KT 15/10 A2971 RMK AO1 SLP053 T01500100
10211 20144 53000





000
SAUS43 KUNR 220503
MTR2WX
METAR K2WX 220456Z AUTO 31016KT 17/06 A2966 RMK AO1 SLP025 T01670056





000
SAUS43 KUNR 220503
MTR2WX
METAR K2WX 220456Z AUTO 31016KT 17/06 A2966 RMK AO1 SLP025 T01670056





000
SAUS43 KUNR 220457
MTRD07
METAR KD07 220456Z AUTO 15012KT 17/10 A2970 RMK AO1 SLP050 T01670100





000
SAUS43 KUNR 220457
MTRD07
METAR KD07 220456Z AUTO 15012KT 17/10 A2970 RMK AO1 SLP050 T01670100





000
SAUS43 KUNR 220403
MTR2WX
METAR K2WX 220356Z AUTO 24009KT 14/04 A2962 RMK AO1 SLP022 T01440044





000
SAUS43 KUNR 220403
MTR2WX
METAR K2WX 220356Z AUTO 24009KT 14/04 A2962 RMK AO1 SLP022 T01440044





000
SAUS43 KUNR 220357
MTRD07
METAR KD07 220356Z AUTO 16011KT 17/09 A2971 RMK AO1 SLP053 T01670089





000
SAUS43 KUNR 220357
MTRD07
METAR KD07 220356Z AUTO 16011KT 17/09 A2971 RMK AO1 SLP053 T01670089





000
SAUS43 KUNR 220303
MTR2WX
METAR K2WX 220256Z AUTO 18008KT 17/05 A2960 RMK AO1 SLP016 T01670050
51006





000
SAUS43 KUNR 220257
MTRD07
METAR KD07 220256Z AUTO 15012KT 17/09 A2971 RMK AO1 SLP059 T01670089
53006





000
SAUS43 KUNR 220203
MTR2WX
METAR K2WX 220156Z AUTO 18012KT 18/05 A2960 RMK AO1 SLP018 T01830050





000
SAUS43 KUNR 220203
MTR2WX
METAR K2WX 220156Z AUTO 18012KT 18/05 A2960 RMK AO1 SLP018 T01830050





000
SAUS43 KUNR 220157
MTRD07
METAR KD07 220156Z AUTO 15012KT 18/08 A2970 RMK AO1 SLP058 T01780083





000
SAUS43 KUNR 220157
MTRD07
METAR KD07 220156Z AUTO 15012KT 18/08 A2970 RMK AO1 SLP058 T01780083





000
SAUS43 KUNR 220103
MTR2WX
METAR K2WX 220056Z AUTO 19011KT 19/05 A2960 RMK AO1 SLP016 T01890050





000
SAUS43 KUNR 220057
MTRD07
METAR KD07 220056Z AUTO 16012KT 18/08 A2970 RMK AO1 SLP056 T01830083





000
SAUS43 KUNR 220003
MTR2WX
METAR K2WX 212356Z AUTO 16010KT 22/05 A2958 RMK AO1 SLP008 T02170050
10289 20217 56002





000
SAUS43 KUNR 212357
MTRD07
METAR KD07 212356Z AUTO 17012KT 21/08 A2969 RMK AO1 SLP053 T02110083
10278 20211 53001





000
SAUS43 KUNR 212303
MTR2WX
METAR K2WX 212256Z AUTO 19011KT 27/04 A2959 RMK AO1 SLP003 T02670044





000
SAUS43 KUNR 212303
MTR2WX
METAR K2WX 212256Z AUTO 19011KT 27/04 A2959 RMK AO1 SLP003 T02670044





000
SAUS43 KUNR 212257
MTRD07
METAR KD07 212256Z AUTO 19015KT 26/07 A2968 RMK AO1 PK WND
18026/2209 SLP043 T02610067





000
SAUS43 KUNR 212257
MTRD07
METAR KD07 212256Z AUTO 19015KT 26/07 A2968 RMK AO1 PK WND
18026/2209 SLP043 T02610067





000
SAUS43 KUNR 212203
MTR2WX
METAR K2WX 212156Z AUTO 19014KT 28/04 A2959 RMK AO1 SLP002 T02780044





000
SAUS43 KUNR 212203
MTR2WX
METAR K2WX 212156Z AUTO 19014KT 28/04 A2959 RMK AO1 SLP002 T02780044





000
SAUS43 KUNR 212157
MTRD07
METAR KD07 212156Z AUTO 18019G27KT 28/06 A2968 RMK AO1 PK WND
18027/2117 SLP040 T02780061





000
SAUS43 KUNR 212157
MTRD07
METAR KD07 212156Z AUTO 18019G27KT 28/06 A2968 RMK AO1 PK WND
18027/2117 SLP040 T02780061





000
SAUS43 KUNR 212105
MTRD07
METAR KD07 212056Z AUTO 17019KT 27/07 A2969 RMK AO1 PK WND
17026/2020 SLP045 T02720072 56020





000
SAUS43 KUNR 212103
MTR2WX
METAR K2WX 212056Z AUTO 21018G25KT 28/04 A2959 RMK AO1 PK WND
20026/2020 SLP004 T02830044 56018





000
SAUS43 KUNR 212003
MTR2WX
METAR K2WX 211956Z AUTO 21021KT 28/05 A2960 RMK AO1 PK WND
20030/1928 SLP005 T02830050





000
SAUS43 KUNR 211957
MTRD07
METAR KD07 211956Z AUTO 17018G25KT 27/07 A2971 RMK AO1 SLP049
T02670072





000
SAUS43 KUNR 211957
MTRD07
METAR KD07 211956Z AUTO 17018G25KT 27/07 A2971 RMK AO1 SLP049
T02670072





000
SAUS43 KUNR 211903
MTR2WX
METAR K2WX 211856Z AUTO 19014KT 27/06 A2962 RMK AO1 SLP013 T02720056





000
SAUS43 KUNR 211803
MTR2WX
METAR K2WX 211756Z AUTO 19011KT 25/06 A2965 RMK AO1 WSHFT 1719
SLP023 T02500056 10250 20072 58015





000
SAUS43 KUNR 211746
MTR2WX
SPECI K2WX 211739Z AUTO 19012KT 24/06 A2966 RMK AO1 WSHFT 1719
T02440061





000
SAUS43 KUNR 211746
MTR2WX
SPECI K2WX 211739Z AUTO 19012KT 24/06 A2966 RMK AO1 WSHFT 1719
T02440061





000
SAUS43 KUNR 211703
MTR2WX
METAR K2WX 211656Z AUTO 16010G21KT 24/06 A2967 RMK AO1 SLP031
T02390056





000
SAUS43 KUNR 211657
MTRD07
METAR KD07 211656Z AUTO 16017KT 19/08 A2977 RMK AO1 SLP075 T01890078





000
SAUS43 KUNR 211657
MTRD07
METAR KD07 211656Z AUTO 16017KT 19/08 A2977 RMK AO1 SLP075 T01890078





000
SAUS43 KUNR 211603
MTR2WX
METAR K2WX 211556Z AUTO 13004KT 16/07 A2969 RMK AO1 SLP044 T01610072





000
SAUS43 KUNR 211603
MTR2WX
METAR K2WX 211556Z AUTO 13004KT 16/07 A2969 RMK AO1 SLP044 T01610072





000
SAUS43 KUNR 211557
MTRD07
METAR KD07 211556Z AUTO 17018KT 17/07 A2978 RMK AO1 SLP079 T01720072





000
SAUS43 KUNR 211557
MTRD07
METAR KD07 211556Z AUTO 17018KT 17/07 A2978 RMK AO1 SLP079 T01720072





000
SAUS43 KUNR 211503
MTR2WX
METAR K2WX 211456Z AUTO 19006KT 12/06 A2970 RMK AO1 SLP052 T01170061
58006





000
SAUS43 KUNR 211457
MTRD07
METAR KD07 211456Z AUTO 17016KT 13/06 A2979 RMK AO1 SLP086 T01330061
58002





000
SAUS43 KUNR 211403
MTR2WX
METAR K2WX 211356Z AUTO 17007KT 09/04 A2971 RMK AO1 SLP059 T00890044





000
SAUS43 KUNR 211357
MTRD07
METAR KD07 211356Z AUTO 16015KT 09/04 A2980 RMK AO1 SLP091 T00890044





000
SAUS43 KUNR 211303
MTR2WX
METAR K2WX 211256Z AUTO 16005KT 08/04 A2971 RMK AO1 SLP057 T00830039





000
SAUS43 KUNR 211257
MTRD07
METAR KD07 211256Z AUTO 16016KT 08/04 A2979 RMK AO1 SLP090 T00780039





000
SAUS43 KUNR 211203
MTR2WX
METAR K2WX 211156Z AUTO 16007KT 09/04 A2972 RMK AO1 SLP056 T00890039
10133 20083 58009





000
SAUS43 KUNR 211203
MTR2WX
METAR K2WX 211156Z AUTO 16007KT 09/04 A2972 RMK AO1 SLP056 T00890039
10133 20083 58009





000
SAUS43 KUNR 211157
MTRD07
METAR KD07 211156Z AUTO 16016KT 08/04 A2980 RMK AO1 SLP090 T00780039
10117 20078 56007





000
SAUS43 KUNR 211157
MTRD07
METAR KD07 211156Z AUTO 16016KT 08/04 A2980 RMK AO1 SLP090 T00780039
10117 20078 56007





000
SAUS43 KUNR 211103
MTR2WX
METAR K2WX 211056Z AUTO 19005KT 09/04 A2973 RMK AO1 SLP057 T00940044





000
SAUS43 KUNR 211103
MTR2WX
METAR K2WX 211056Z AUTO 19005KT 09/04 A2973 RMK AO1 SLP057 T00940044





000
SAUS43 KUNR 211057
MTRD07
METAR KD07 211056Z AUTO 16016KT 08/04 A2980 RMK AO1 SLP089 T00830039





000
SAUS43 KUNR 211057
MTRD07
METAR KD07 211056Z AUTO 16016KT 08/04 A2980 RMK AO1 SLP089 T00830039





000
SAUS43 KUNR 211003
MTR2WX
METAR K2WX 210956Z AUTO 00000KT 09/04 A2974 RMK AO1 SLP058 T00940044





000
SAUS43 KUNR 211003
MTR2WX
METAR K2WX 210956Z AUTO 00000KT 09/04 A2974 RMK AO1 SLP058 T00940044





000
SAUS43 KUNR 210957
MTRD07
METAR KD07 210956Z AUTO 16016KT 08/04 A2980 RMK AO1 SLP088 T00830039





000
SAUS43 KUNR 210957
MTRD07
METAR KD07 210956Z AUTO 16016KT 08/04 A2980 RMK AO1 SLP088 T00830039





000
SAUS43 KUNR 210903
MTR2WX
METAR K2WX 210856Z AUTO 00000KT 09/04 A2975 RMK AO1 SLP062 T00940044
58009





000
SAUS43 KUNR 210857
MTRD07
METAR KD07 210856Z AUTO 16015KT 09/04 A2982 RMK AO1 SLP092 T00940039
56009





000
SAUS43 KUNR 210803
MTR2WX
METAR K2WX 210756Z AUTO 08005KT 10/05 A2976 RMK AO1 SLP065 T01000050





000
SAUS43 KUNR 210757
MTRD07
METAR KD07 210756Z AUTO 16014KT 11/04 A2983 RMK AO1 SLP096 T01060044





000
SAUS43 KUNR 210703
MTR2WX
METAR K2WX 210656Z AUTO 00000KT 12/05 A2977 RMK AO1 SLP068 T01170050
402440061





000
SAUS43 KUNR 210657
MTRD07
METAR KD07 210656Z AUTO 15014KT 11/04 A2983 RMK AO1 SLP098 T01110044
402390044





000
SAUS43 KUNR 210603
MTR2WX
METAR K2WX 210556Z AUTO 14004KT 13/05 A2978 RMK AO1 SLP071 T01330050
10194 20122 58014





000
SAUS43 KUNR 210558
MTRD07
METAR KD07 210556Z AUTO 15014KT 12/04 A2985 RMK AO1 SLP104 T01170044
10189 20117 58012





000
SAUS43 KUNR 210503
MTR2WX
METAR K2WX 210456Z AUTO 13004KT 14/06 A2979 RMK AO1 SLP079 T01440056





000
SAUS43 KUNR 210457
MTRD07
METAR KD07 210456Z AUTO 14015KT 13/04 A2986 RMK AO1 SLP109 T01330044





000
SAUS43 KUNR 210457
MTRD07
METAR KD07 210456Z AUTO 14015KT 13/04 A2986 RMK AO1 SLP109 T01330044





000
SAUS43 KUNR 210403
MTR2WX
METAR K2WX 210356Z AUTO 07003KT 13/06 A2981 RMK AO1 SLP089 T01330056





000
SAUS43 KUNR 210403
MTR2WX
METAR K2WX 210356Z AUTO 07003KT 13/06 A2981 RMK AO1 SLP089 T01330056





000
SAUS43 KUNR 210357
MTRD07
METAR KD07 210356Z AUTO 14014KT 14/04 A2987 RMK AO1 SLP114 T01440044





000
SAUS43 KUNR 210357
MTRD07
METAR KD07 210356Z AUTO 14014KT 14/04 A2987 RMK AO1 SLP114 T01440044





000
SAUS43 KUNR 210303
MTR2WX
METAR K2WX 210256Z AUTO 07005KT 14/06 A2982 RMK AO1 SLP095 T01440056
58006





000
SAUS43 KUNR 210303
MTR2WX
METAR K2WX 210256Z AUTO 07005KT 14/06 A2982 RMK AO1 SLP095 T01440056
58006





000
SAUS43 KUNR 210257
MTRD07
METAR KD07 210256Z AUTO 13015KT 15/04 A2988 RMK AO1 SLP121 T01500044
56008





000
SAUS43 KUNR 210203
MTR2WX
METAR K2WX 210156Z AUTO 08007KT 15/05 A2983 RMK AO1 SLP101 T01500050





000
SAUS43 KUNR 210203
MTR2WX
METAR K2WX 210156Z AUTO 08007KT 15/05 A2983 RMK AO1 SLP101 T01500050





000
SAUS43 KUNR 210157
MTRD07
METAR KD07 210156Z AUTO 13016KT 17/04 A2989 RMK AO1 SLP126 T01670044





000
SAUS43 KUNR 210157
MTRD07
METAR KD07 210156Z AUTO 13016KT 17/04 A2989 RMK AO1 SLP126 T01670044





000
SAUS43 KUNR 210103
MTR2WX
METAR K2WX 210056Z AUTO 11008KT 17/06 A2984 RMK AO1 SLP103 T01720056





000
SAUS43 KUNR 210057
MTRD07
METAR KD07 210056Z AUTO 14013KT 17/05 A2990 RMK AO1 SLP130 T01720050





000
SAUS43 KUNR 210003
MTR2WX
METAR K2WX 202356Z AUTO 12008KT 19/06 A2984 RMK AO1 SLP101 T01940056
10244 20194 56005





000
SAUS43 KUNR 202357
MTRD07
METAR KD07 202356Z AUTO 13010KT 18/06 A2991 RMK AO1 SLP134 T01830056
10239 20183 56006





000
SAUS43 KUNR 202303
MTR2WX
METAR K2WX 202256Z AUTO 14012KT 22/05 A2985 RMK AO1 SLP099 T02220050





000
SAUS43 KUNR 202257
MTRD07
METAR KD07 202256Z AUTO 14011KT 23/06 A2991 RMK AO1 SLP128 T02280056





000
SAUS43 KUNR 202203
MTR2WX
METAR K2WX 202156Z AUTO 13013KT 23/05 A2985 RMK AO1 SLP101 T02330050





000
SAUS43 KUNR 202203
MTR2WX
METAR K2WX 202156Z AUTO 13013KT 23/05 A2985 RMK AO1 SLP101 T02330050





000
SAUS43 KUNR 202157
MTRD07
METAR KD07 202156Z AUTO 14016KT 23/05 A2992 RMK AO1 PK WND
13026/2059 SLP131 T02330050





000
SAUS43 KUNR 202157
MTRD07
METAR KD07 202156Z AUTO 14016KT 23/05 A2992 RMK AO1 PK WND
13026/2059 SLP131 T02330050





000
SAUS43 KUNR 202103
MTR2WX
METAR K2WX 202056Z AUTO 15015KT 24/04 A2986 RMK AO1 SLP102 T02390044
56019





000
SAUS43 KUNR 202057
MTRD07
METAR KD07 202056Z AUTO 14017KT 23/05 A2993 RMK AO1 PK WND
15027/2042 SLP134 T02330050 56024





000
SAUS43 KUNR 202003
MTR2WX
METAR K2WX 201956Z AUTO 14015G20KT 24/04 A2987 RMK AO1 SLP105
T02390044





000
SAUS43 KUNR 201957
MTRD07
METAR KD07 201956Z AUTO 14019G24KT 22/04 A2995 RMK AO1 SLP143
T02220044





000
SAUS43 KUNR 201903
MTR2WX
METAR K2WX 201856Z AUTO 15013KT 23/05 A2989 RMK AO1 SLP113 T02280050





000
SAUS43 KUNR 201857
MTRD07
METAR KD07 201856Z AUTO 15019G23KT 22/05 A2998 RMK AO1 PK WND
16026/1830 SLP149 T02170050





000
SAUS43 KUNR 201803
MTR2WX
METAR K2WX 201756Z AUTO 16012G17KT 21/06 A2992 RMK AO1 SLP124
T02060056 10206 20061 58010





000
SAUS43 KUNR 201757
MTRD07
METAR KD07 201756Z AUTO 15022G26KT 19/04 A3001 RMK AO1 PK WND
14026/1755 SLP159 T01940044 10194 20044 58013





000
SAUS43 KUNR 201703
MTR2WX
METAR K2WX 201656Z AUTO 15013KT 17/05 A2994 RMK AO1 SLP137 T01720050





000
SAUS43 KUNR 201657
MTRD07
METAR KD07 201656Z AUTO 16016KT 18/06 A3003 RMK AO1 SLP169 T01780056





000
SAUS43 KUNR 201603
MTR2WX
METAR K2WX 201556Z AUTO 15011KT 14/04 A2994 RMK AO1 SLP137 T01440039





000
SAUS43 KUNR 201557
MTRD07
METAR KD07 201556Z AUTO 17016G22KT 15/05 A3004 RMK AO1 SLP173
T01500050





000
SAUS43 KUNR 201503
MTR2WX
METAR K2WX 201456Z AUTO 17007KT 11/03 A2995 RMK AO1 SLP146 T01060033
55002





000
SAUS43 KUNR 201457
MTRD07
METAR KD07 201456Z AUTO 16011KT 11/04 A3005 RMK AO1 SLP181 T01110044
56003





000
SAUS43 KUNR 201403
MTR2WX
METAR K2WX 201356Z AUTO 14005KT 08/02 A2995 RMK AO1 SLP143 T00780022





000
SAUS43 KUNR 201357
MTRD07
METAR KD07 201356Z AUTO 15010KT 08/03 A3005 RMK AO1 SLP185 T00780033





000
SAUS43 KUNR 201303
MTR2WX
METAR K2WX 201256Z AUTO 13009KT 07/02 A2995 RMK AO1 SLP142 T00670017





000
SAUS43 KUNR 201257
MTRD07
METAR KD07 201256Z AUTO 15010KT 07/03 A3005 RMK AO1 SLP183 T00720028





000
SAUS43 KUNR 201203
MTR2WX
METAR K2WX 201156Z AUTO 12005KT 07/02 A2996 RMK AO1 SLP144 T00670017
10106 20061 58009





000
SAUS43 KUNR 201157
MTRD07
METAR KD07 201156Z AUTO 17009KT 05/02 A3006 RMK AO1 SLP186 T00500017
10133 20050 58001





000
SAUS43 KUNR 201103
MTR2WX
METAR K2WX 201056Z AUTO 13005KT 07/02 A2997 RMK AO1 SLP145 T00720017





000
SAUS43 KUNR 201057
MTRD07
METAR KD07 201056Z AUTO 17009KT 06/02 A3006 RMK AO1 SLP181 T00610022





000
SAUS43 KUNR 201003
MTR2WX
METAR K2WX 200956Z AUTO 12004KT 07/01 A2998 RMK AO1 SLP148 T00670011





000
SAUS43 KUNR 201003
MTR2WX
METAR K2WX 200956Z AUTO 12004KT 07/01 A2998 RMK AO1 SLP148 T00670011





000
SAUS43 KUNR 200957
MTRD07
METAR KD07 200956Z AUTO 17009KT 06/02 A3007 RMK AO1 SLP182 T00560022





000
SAUS43 KUNR 200957
MTRD07
METAR KD07 200956Z AUTO 17009KT 06/02 A3007 RMK AO1 SLP182 T00560022





000
SAUS43 KUNR 200903
MTR2WX
METAR K2WX 200856Z AUTO 15008KT 07/01 A2999 RMK AO1 SLP149 T00670011
58002





000
SAUS43 KUNR 200858
MTRD07
METAR KD07 200856Z AUTO 16010KT 06/02 A3006 RMK AO1 SLP180 T00610022
52001





    US Dept of Commerce
    National Oceanic and Atmospheric Administration
    National Weather Service
    1325 East West Highway
    Silver Spring, MD 20910
    Page Author: NWS Internet Services Team
Disclaimer
Information Quality
Credits
Glossary
Privacy Policy
Freedom of Information Act (FOIA)
About Us
Career Opportunities